Terminal Aerodrome Forecast
Issued by NWS Glasgow, MT

Home | Current Version | Previous Version | Text Only | Print | Product List | Glossary On
Versions: 1 2 3 4 5 6 7 8 9 10 11 12 13
000
FTUS45 KGGW 040500
TAFGGW
TAF
KGGW 040520Z 0406/0506 08008KT P6SM FEW250
     FM041200 10012KT P6SM SCT090
     FM041800 13019G27KT P6SM SCT080=

USA.gov is the U.S. government's official web portal to all federal, state and local government web resources and services.